CES214 EGKK-ZSPD
Flight info
| Callsign | CES214 |
|---|---|
| Flight time | N/A |
| Altitude | 35000 |
| Route | FRANE M604 PAAVO Q295 SOMVA DCT MAVAS DCT SPY N873 ANDIK DCT KUBAT DCT DOSUR DCT TALSA DCT TUKMA P989 MEGAS/K0906F350 P989 OBIBA P997 AKUGI T635 SADER T580 ADMUR G117 XV R229 BA R104 ABK A308 TR P982 DARNO/K0909S1065 Y746 NIXAL B208 CGO W129 KAMDA W128 FYG B208 HFE R343 SASAN SAS11A |
| Aircraft | B789/H-SDE1E2E3FGHIJ2J3J4J5M1RWXY/LB1D1 |
Departure
| Time | 2026-05-04 21:09 |
|---|---|
| Airport | London Gatwick Airport (EGKK) |
Arrival
| Time | N/A |
|---|---|
| Airport | Shanghai Pudong International Airport (ZSPD) |
| Time | Latitude | Longitude | Altitude | Speed | Heading |
|---|---|---|---|---|---|
| 2026-05-04 20:18 | 51.16244 | -0.18085 | 218 ft | 0 kts | 78° |
| 2026-05-04 20:54 | 51.16244 | -0.18087 | 209 ft | 1 kts | 78° |
| 2026-05-04 20:54 | 51.16240 | -0.18112 | 220 ft | 3 kts | 78° |
| 2026-05-04 20:54 | 51.16236 | -0.18144 | 218 ft | 3 kts | 78° |
| 2026-05-04 20:55 | 51.16232 | -0.18175 | 216 ft | 3 kts | 86° |
| 2026-05-04 20:55 | 51.16233 | -0.18203 | 213 ft | 3 kts | 125° |
| 2026-05-04 20:55 | 51.16243 | -0.18217 | 217 ft | 1 kts | 167° |
| 2026-05-04 20:55 | 51.16256 | -0.18222 | 214 ft | 3 kts | 168° |
| 2026-05-04 20:56 | 51.16273 | -0.18228 | 213 ft | 1 kts | 167° |
| 2026-05-04 20:56 | 51.16275 | -0.18229 | 214 ft | 0 kts | 168° |
| 2026-05-04 20:58 | 51.16266 | -0.18225 | 211 ft | 5 kts | 167° |
| 2026-05-04 20:58 | 51.16202 | -0.18203 | 217 ft | 13 kts | 167° |
| 2026-05-04 20:58 | 51.16114 | -0.18173 | 215 ft | 13 kts | 167° |
| 2026-05-04 20:59 | 51.16031 | -0.18144 | 216 ft | 12 kts | 167° |
| 2026-05-04 20:59 | 51.15954 | -0.18117 | 218 ft | 11 kts | 167° |
| 2026-05-04 20:59 | 51.15899 | -0.18097 | 213 ft | 14 kts | 167° |
| 2026-05-04 20:59 | 51.15765 | -0.18051 | 215 ft | 13 kts | 167° |
| 2026-05-04 21:00 | 51.15721 | -0.18039 | 214 ft | 8 kts | 181° |
| 2026-05-04 21:00 | 51.15683 | -0.18096 | 215 ft | 12 kts | 242° |
| 2026-05-04 21:00 | 51.15662 | -0.18230 | 220 ft | 12 kts | 258° |
| 2026-05-04 21:00 | 51.15633 | -0.18338 | 219 ft | 8 kts | 210° |
| 2026-05-04 21:01 | 51.15562 | -0.18337 | 216 ft | 13 kts | 167° |
| 2026-05-04 21:01 | 51.15458 | -0.18301 | 216 ft | 17 kts | 167° |
| 2026-05-04 21:01 | 51.15340 | -0.18259 | 215 ft | 17 kts | 167° |
| 2026-05-04 21:01 | 51.15235 | -0.18225 | 212 ft | 13 kts | 177° |
| 2026-05-04 21:02 | 51.15184 | -0.18291 | 214 ft | 8 kts | 261° |
| 2026-05-04 21:02 | 51.15169 | -0.18440 | 217 ft | 18 kts | 258° |
| 2026-05-04 21:02 | 51.15144 | -0.18629 | 217 ft | 17 kts | 258° |
| 2026-05-04 21:02 | 51.15119 | -0.18810 | 214 ft | 16 kts | 257° |
| 2026-05-04 21:03 | 51.15096 | -0.18980 | 220 ft | 17 kts | 257° |
| 2026-05-04 21:03 | 51.15068 | -0.19184 | 212 ft | 19 kts | 257° |
| 2026-05-04 21:03 | 51.15040 | -0.19387 | 217 ft | 18 kts | 257° |
| 2026-05-04 21:03 | 51.15014 | -0.19577 | 219 ft | 17 kts | 258° |
| 2026-05-04 21:04 | 51.14987 | -0.19772 | 213 ft | 18 kts | 257° |
| 2026-05-04 21:04 | 51.14958 | -0.19977 | 212 ft | 19 kts | 257° |
| 2026-05-04 21:04 | 51.14929 | -0.20190 | 215 ft | 20 kts | 257° |
| 2026-05-04 21:04 | 51.14900 | -0.20397 | 216 ft | 19 kts | 257° |
| 2026-05-04 21:05 | 51.14873 | -0.20593 | 216 ft | 17 kts | 258° |
| 2026-05-04 21:05 | 51.14848 | -0.20776 | 208 ft | 16 kts | 257° |
| 2026-05-04 21:05 | 51.14824 | -0.20952 | 216 ft | 19 kts | 258° |
| 2026-05-04 21:05 | 51.14791 | -0.21150 | 221 ft | 18 kts | 249° |
| 2026-05-04 21:06 | 51.14763 | -0.21333 | 212 ft | 14 kts | 257° |
| 2026-05-04 21:06 | 51.14716 | -0.21397 | 216 ft | 8 kts | 185° |
| 2026-05-04 21:06 | 51.14660 | -0.21359 | 220 ft | 10 kts | 148° |
| 2026-05-04 21:06 | 51.14576 | -0.21308 | 212 ft | 16 kts | 155° |
| 2026-05-04 21:07 | 51.14523 | -0.21171 | 214 ft | 14 kts | 90° |
| 2026-05-04 21:07 | 51.14529 | -0.21104 | 214 ft | 0 kts | 79° |
| 2026-05-04 21:08 | 51.14543 | -0.20997 | 217 ft | 33 kts | 77° |
| 2026-05-04 21:08 | 51.14637 | -0.20321 | 214 ft | 91 kts | 77° |
| 2026-05-04 21:09 | 51.14810 | -0.19066 | 217 ft | 140 kts | 78° |
| 2026-05-04 21:09 | 51.15051 | -0.17316 | 228 ft | 180 kts | 76° |
| 2026-05-04 21:09 | 51.15320 | -0.15390 | 901 ft | 178 kts | 76° |
| 2026-05-04 21:09 | 51.15605 | -0.13394 | 1489 ft | 189 kts | 77° |
| 2026-05-04 21:10 | 51.15898 | -0.11193 | 1709 ft | 217 kts | 77° |
| 2026-05-04 21:10 | 51.16233 | -0.08732 | 2027 ft | 237 kts | 77° |
| 2026-05-04 21:10 | 51.16598 | -0.06079 | 2543 ft | 247 kts | 77° |
| 2026-05-04 21:10 | 51.16911 | -0.03372 | 3331 ft | 253 kts | 88° |
| 2026-05-04 21:11 | 51.16760 | -0.00595 | 4038 ft | 257 kts | 92° |
| 2026-05-04 21:11 | 51.16757 | 0.02323 | 4772 ft | 262 kts | 88° |
| 2026-05-04 21:11 | 51.16757 | 0.05234 | 5370 ft | 266 kts | 90° |
| 2026-05-04 21:11 | 51.16698 | 0.08197 | 6160 ft | 270 kts | 91° |
| 2026-05-04 21:12 | 51.16629 | 0.11209 | 6852 ft | 274 kts | 91° |
| 2026-05-04 21:12 | 51.16571 | 0.14227 | 7581 ft | 276 kts | 91° |
| 2026-05-04 21:12 | 51.16627 | 0.17310 | 8274 ft | 278 kts | 86° |
| 2026-05-04 21:12 | 51.16618 | 0.20391 | 8956 ft | 281 kts | 92° |
| 2026-05-04 21:13 | 51.16559 | 0.23530 | 9664 ft | 284 kts | 90° |
| 2026-05-04 21:13 | 51.16562 | 0.26686 | 10342 ft | 286 kts | 89° |
| 2026-05-04 21:13 | 51.16587 | 0.29872 | 11033 ft | 287 kts | 90° |
| 2026-05-04 21:13 | 51.16594 | 0.33079 | 11664 ft | 290 kts | 90° |
| 2026-05-04 21:14 | 51.16592 | 0.36300 | 12318 ft | 292 kts | 90° |
| 2026-05-04 21:14 | 51.16592 | 0.39503 | 12986 ft | 293 kts | 90° |
| 2026-05-04 21:14 | 51.16595 | 0.42795 | 13618 ft | 297 kts | 90° |
| 2026-05-04 21:14 | 51.16596 | 0.46097 | 14170 ft | 300 kts | 90° |
| 2026-05-04 21:15 | 51.16661 | 0.49429 | 14727 ft | 303 kts | 80° |
| 2026-05-04 21:15 | 51.17411 | 0.52519 | 15247 ft | 307 kts | 57° |
| 2026-05-04 21:15 | 51.18951 | 0.54963 | 15714 ft | 314 kts | 33° |
| 2026-05-04 21:15 | 51.20970 | 0.56187 | 16201 ft | 319 kts | 14° |
| 2026-05-04 21:16 | 51.23151 | 0.57032 | 16666 ft | 323 kts | 14° |
| 2026-05-04 21:16 | 51.25346 | 0.57852 | 17195 ft | 326 kts | 14° |
| 2026-05-04 21:16 | 51.27581 | 0.58668 | 17692 ft | 330 kts | 14° |
| 2026-05-04 21:16 | 51.29819 | 0.59502 | 18236 ft | 332 kts | 14° |
| 2026-05-04 21:17 | 51.32054 | 0.60344 | 18480 ft | 343 kts | 14° |
| 2026-05-04 21:17 | 51.34425 | 0.61236 | 18532 ft | 360 kts | 13° |
| 2026-05-04 21:17 | 51.36925 | 0.62169 | 18580 ft | 377 kts | 13° |
| 2026-05-04 21:17 | 51.39536 | 0.63145 | 18629 ft | 392 kts | 13° |
| 2026-05-04 21:18 | 51.42227 | 0.64165 | 18909 ft | 399 kts | 13° |
| 2026-05-04 21:18 | 51.44937 | 0.65198 | 19369 ft | 402 kts | 13° |
| 2026-05-04 21:18 | 51.47684 | 0.66240 | 19707 ft | 407 kts | 13° |
| 2026-05-04 21:18 | 51.50399 | 0.67269 | 20250 ft | 406 kts | 13° |
| 2026-05-04 21:19 | 51.53164 | 0.68320 | 20580 ft | 411 kts | 13° |
| 2026-05-04 21:19 | 51.55984 | 0.69395 | 21030 ft | 412 kts | 13° |
| 2026-05-04 21:19 | 51.58760 | 0.70454 | 21415 ft | 415 kts | 13° |
| 2026-05-04 21:19 | 51.61582 | 0.71526 | 21826 ft | 417 kts | 13° |
| 2026-05-04 21:20 | 51.64345 | 0.72575 | 22184 ft | 420 kts | 13° |
| 2026-05-04 21:20 | 51.67193 | 0.73660 | 22533 ft | 422 kts | 13° |
| 2026-05-04 21:20 | 51.70073 | 0.74760 | 22884 ft | 425 kts | 13° |
| 2026-05-04 21:20 | 51.72963 | 0.75865 | 23235 ft | 428 kts | 13° |
| 2026-05-04 21:21 | 51.75837 | 0.76965 | 23569 ft | 430 kts | 13° |
| 2026-05-04 21:21 | 51.78799 | 0.78103 | 23874 ft | 432 kts | 13° |
| 2026-05-04 21:21 | 51.81674 | 0.79360 | 24127 ft | 435 kts | 22° |
| 2026-05-04 21:21 | 51.84326 | 0.81687 | 24394 ft | 436 kts | 37° |
| 2026-05-04 21:22 | 51.86540 | 0.85061 | 24640 ft | 438 kts | 53° |
| 2026-05-04 21:22 | 51.88141 | 0.89240 | 24895 ft | 437 kts | 68° |
| 2026-05-04 21:22 | 51.89184 | 0.93870 | 25105 ft | 439 kts | 75° |
| 2026-05-04 21:22 | 51.90010 | 0.98616 | 25342 ft | 440 kts | 76° |
| 2026-05-04 21:23 | 51.90877 | 1.03415 | 25580 ft | 443 kts | 72° |
| 2026-05-04 21:23 | 51.92014 | 1.08082 | 25846 ft | 446 kts | 66° |
| 2026-05-04 21:23 | 51.93330 | 1.12638 | 26083 ft | 448 kts | 65° |
| 2026-05-04 21:23 | 51.94599 | 1.17254 | 26330 ft | 449 kts | 69° |
| 2026-05-04 21:24 | 51.95734 | 1.21983 | 26574 ft | 451 kts | 70° |
| 2026-05-04 21:24 | 51.96874 | 1.26714 | 26816 ft | 453 kts | 69° |
| 2026-05-04 21:24 | 51.98098 | 1.31447 | 27049 ft | 454 kts | 68° |
| 2026-05-04 21:24 | 51.99311 | 1.36110 | 27298 ft | 456 kts | 69° |
| 2026-05-04 21:25 | 52.00504 | 1.40879 | 27529 ft | 458 kts | 69° |
| 2026-05-04 21:25 | 52.01695 | 1.45697 | 27757 ft | 459 kts | 69° |
| 2026-05-04 21:25 | 52.02903 | 1.50509 | 28025 ft | 460 kts | 68° |
| 2026-05-04 21:25 | 52.04122 | 1.55335 | 28217 ft | 463 kts | 68° |
| 2026-05-04 21:26 | 52.05337 | 1.60191 | 28385 ft | 466 kts | 69° |
| 2026-05-04 21:26 | 52.06549 | 1.65083 | 28604 ft | 467 kts | 69° |
| 2026-05-04 21:26 | 52.07769 | 1.69993 | 28824 ft | 469 kts | 69° |
| 2026-05-04 21:26 | 52.08994 | 1.74917 | 29021 ft | 471 kts | 69° |
| 2026-05-04 21:27 | 52.10224 | 1.79880 | 29253 ft | 472 kts | 69° |
| 2026-05-04 21:27 | 52.11448 | 1.84841 | 29451 ft | 474 kts | 69° |
| 2026-05-04 21:27 | 52.12672 | 1.89814 | 29665 ft | 475 kts | 69° |
| 2026-05-04 21:27 | 52.13903 | 1.94816 | 29869 ft | 477 kts | 69° |
| 2026-05-04 21:28 | 52.15138 | 1.99850 | 30065 ft | 478 kts | 69° |
| 2026-05-04 21:28 | 52.16375 | 2.04902 | 30245 ft | 480 kts | 69° |
| 2026-05-04 21:28 | 52.17607 | 2.09951 | 30432 ft | 481 kts | 69° |
| 2026-05-04 21:28 | 52.18846 | 2.15035 | 30612 ft | 482 kts | 69° |
| 2026-05-04 21:29 | 52.20065 | 2.20048 | 30788 ft | 483 kts | 69° |
| 2026-05-04 21:29 | 52.21301 | 2.25142 | 30971 ft | 484 kts | 69° |
| 2026-05-04 21:29 | 52.22537 | 2.30253 | 31143 ft | 485 kts | 69° |
| 2026-05-04 21:29 | 52.23775 | 2.35382 | 31327 ft | 486 kts | 69° |
| 2026-05-04 21:30 | 52.25010 | 2.40509 | 31486 ft | 487 kts | 69° |
| 2026-05-04 21:30 | 52.26252 | 2.45678 | 31667 ft | 488 kts | 69° |
| 2026-05-04 21:30 | 52.28733 | 2.56044 | 31926 ft | 491 kts | 69° |
| 2026-05-04 21:31 | 52.31120 | 2.66529 | 32223 ft | 492 kts | 75° |
| 2026-05-04 21:31 | 52.32068 | 2.71928 | 32341 ft | 494 kts | 75° |
| 2026-05-04 21:31 | 52.32960 | 2.77074 | 32512 ft | 494 kts | 75° |
| 2026-05-04 21:32 | 52.33910 | 2.82482 | 32667 ft | 495 kts | 75° |
| 2026-05-04 21:32 | 52.34869 | 2.87896 | 32837 ft | 496 kts | 75° |
| 2026-05-04 21:32 | 52.35819 | 2.93320 | 32974 ft | 497 kts | 75° |
| 2026-05-04 21:32 | 52.36753 | 2.98702 | 33117 ft | 498 kts | 75° |
| 2026-05-04 21:33 | 52.37702 | 3.04180 | 33163 ft | 501 kts | 75° |
| 2026-05-04 21:33 | 52.38654 | 3.09657 | 33321 ft | 502 kts | 75° |
| 2026-05-04 21:33 | 52.39604 | 3.15162 | 33446 ft | 503 kts | 77° |
| 2026-05-04 21:33 | 52.40261 | 3.20801 | 33567 ft | 502 kts | 83° |
| 2026-05-04 21:34 | 52.40764 | 3.26477 | 33714 ft | 502 kts | 83° |
| 2026-05-04 21:34 | 52.41254 | 3.32117 | 33899 ft | 502 kts | 83° |
| 2026-05-04 21:34 | 52.41761 | 3.37717 | 34086 ft | 501 kts | 83° |
| 2026-05-04 21:34 | 52.42282 | 3.43419 | 34248 ft | 501 kts | 83° |
| 2026-05-04 21:35 | 52.42785 | 3.49090 | 34379 ft | 501 kts | 83° |
| 2026-05-04 21:35 | 52.43270 | 3.54667 | 34483 ft | 503 kts | 83° |
| 2026-05-04 21:35 | 52.43744 | 3.60078 | 34618 ft | 503 kts | 83° |
| 2026-05-04 21:35 | 52.44242 | 3.65742 | 34765 ft | 503 kts | 83° |
| 2026-05-04 21:36 | 52.44738 | 3.71431 | 34905 ft | 503 kts | 83° |
| 2026-05-04 21:36 | 52.45225 | 3.77099 | 35035 ft | 500 kts | 83° |
| 2026-05-04 21:36 | 52.45703 | 3.82673 | 35011 ft | 486 kts | 83° |
| 2026-05-04 21:36 | 52.46167 | 3.88099 | 35011 ft | 473 kts | 83° |
| 2026-05-04 21:37 | 52.46613 | 3.93349 | 35002 ft | 460 kts | 83° |
| 2026-05-04 21:37 | 52.47045 | 3.98473 | 34981 ft | 447 kts | 83° |
| 2026-05-04 21:37 | 52.47469 | 4.03537 | 35003 ft | 448 kts | 84° |
| 2026-05-04 21:38 | 52.48313 | 4.13679 | 35012 ft | 456 kts | 84° |
| 2026-05-04 21:38 | 52.49170 | 4.24070 | 35010 ft | 464 kts | 84° |
| 2026-05-04 21:39 | 52.50032 | 4.34646 | 35030 ft | 471 kts | 84° |
| 2026-05-04 21:39 | 52.50905 | 4.45493 | 35020 ft | 480 kts | 84° |
| 2026-05-04 21:40 | 52.51773 | 4.56398 | 35022 ft | 489 kts | 84° |
| 2026-05-04 21:40 | 52.52651 | 4.67557 | 35012 ft | 497 kts | 84° |
| 2026-05-04 21:41 | 52.53554 | 4.78879 | 35019 ft | 499 kts | 79° |
| 2026-05-04 21:41 | 52.54502 | 4.84325 | 35032 ft | 492 kts | 67° |
| 2026-05-04 21:41 | 52.56054 | 4.89328 | 35060 ft | 492 kts | 56° |
| 2026-05-04 21:42 | 52.60250 | 4.98334 | 35025 ft | 500 kts | 51° |
| 2026-05-04 21:42 | 52.64554 | 5.07301 | 35017 ft | 504 kts | 52° |
| 2026-05-04 21:43 | 52.68874 | 5.16382 | 35024 ft | 505 kts | 52° |
| 2026-05-04 21:43 | 52.73201 | 5.25477 | 35025 ft | 504 kts | 52° |
| 2026-05-04 21:44 | 52.76903 | 5.35269 | 35027 ft | 503 kts | 60° |
| 2026-05-04 21:44 | 52.79836 | 5.43571 | 35029 ft | 503 kts | 59° |
| 2026-05-04 21:45 | 52.83402 | 5.53538 | 35034 ft | 504 kts | 60° |
| 2026-05-04 21:45 | 52.86814 | 5.63213 | 35026 ft | 507 kts | 60° |
| 2026-05-04 21:46 | 52.90384 | 5.73313 | 35039 ft | 508 kts | 60° |
| 2026-05-04 21:46 | 52.93926 | 5.83406 | 35040 ft | 506 kts | 60° |
| 2026-05-04 21:47 | 52.97468 | 5.93527 | 35037 ft | 505 kts | 60° |
| 2026-05-04 21:47 | 53.00981 | 6.03609 | 35038 ft | 505 kts | 60° |
| 2026-05-04 21:48 | 53.04479 | 6.13687 | 35022 ft | 509 kts | 60° |
| 2026-05-04 21:48 | 53.08034 | 6.23974 | 35025 ft | 514 kts | 60° |
| 2026-05-04 21:49 | 53.11580 | 6.34279 | 35024 ft | 513 kts | 60° |
| 2026-05-04 21:49 | 53.15108 | 6.44570 | 35024 ft | 511 kts | 60° |
| 2026-05-04 21:50 | 53.18629 | 6.54885 | 35027 ft | 511 kts | 60° |
| 2026-05-04 21:50 | 53.22012 | 6.64838 | 35029 ft | 512 kts | 60° |
| 2026-05-04 21:51 | 53.25525 | 6.75215 | 35015 ft | 516 kts | 60° |
| 2026-05-04 21:51 | 53.29055 | 6.85687 | 35019 ft | 516 kts | 60° |
| 2026-05-04 21:52 | 53.32594 | 6.96098 | 35024 ft | 515 kts | 55° |
| 2026-05-04 21:52 | 53.34841 | 7.00783 | 35050 ft | 513 kts | 42° |
| 2026-05-04 21:52 | 53.37483 | 7.04676 | 35025 ft | 513 kts | 38° |
| 2026-05-04 21:53 | 53.43005 | 7.12267 | 35036 ft | 513 kts | 38° |
| 2026-05-04 21:53 | 53.48510 | 7.19913 | 35031 ft | 514 kts | 38° |
| 2026-05-04 21:54 | 53.54031 | 7.27590 | 35026 ft | 514 kts | 38° |
| 2026-05-04 21:54 | 53.59532 | 7.35266 | 35030 ft | 514 kts | 38° |
| 2026-05-04 21:55 | 53.64900 | 7.42790 | 35030 ft | 515 kts | 38° |
| 2026-05-04 21:55 | 53.70421 | 7.50547 | 35030 ft | 516 kts | 38° |
| 2026-05-04 21:56 | 53.75888 | 7.58262 | 35047 ft | 515 kts | 38° |
| 2026-05-04 21:56 | 53.81354 | 7.65997 | 35024 ft | 510 kts | 38° |
| 2026-05-04 21:57 | 53.86800 | 7.73734 | 35022 ft | 510 kts | 38° |
| 2026-05-04 21:57 | 53.92239 | 7.81488 | 35024 ft | 511 kts | 38° |
| 2026-05-04 21:58 | 53.97650 | 7.89228 | 35028 ft | 512 kts | 38° |
| 2026-05-04 21:58 | 54.03098 | 7.97050 | 35038 ft | 513 kts | 38° |
| 2026-05-04 21:59 | 54.08554 | 8.04912 | 35037 ft | 514 kts | 38° |
| 2026-05-04 21:59 | 54.14005 | 8.12795 | 35035 ft | 512 kts | 38° |
| 2026-05-04 22:00 | 54.19429 | 8.20664 | 35030 ft | 511 kts | 38° |
| 2026-05-04 22:00 | 54.24844 | 8.28549 | 35030 ft | 511 kts | 38° |
| 2026-05-04 22:01 | 54.30205 | 8.36385 | 35019 ft | 509 kts | 38° |
| 2026-05-04 22:01 | 54.35596 | 8.44291 | 35019 ft | 510 kts | 38° |
| 2026-05-04 22:02 | 54.40983 | 8.52222 | 35024 ft | 511 kts | 39° |
| 2026-05-04 22:02 | 54.46384 | 8.60201 | 35018 ft | 511 kts | 38° |
| 2026-05-04 22:03 | 54.51769 | 8.68184 | 35017 ft | 511 kts | 38° |
| 2026-05-04 22:03 | 54.57151 | 8.76193 | 35019 ft | 511 kts | 38° |
| 2026-05-04 22:04 | 54.62532 | 8.84228 | 35018 ft | 511 kts | 39° |
| 2026-05-04 22:04 | 54.67761 | 8.92066 | 35010 ft | 511 kts | 39° |
| 2026-05-04 22:05 | 54.73081 | 9.00069 | 35003 ft | 505 kts | 39° |
| 2026-05-04 22:05 | 54.78399 | 9.08095 | 35003 ft | 505 kts | 39° |
| 2026-05-04 22:06 | 54.83708 | 9.16139 | 34996 ft | 507 kts | 39° |